Time;durP1;ratioP1;P1;durP2;ratioP2;P2;SDS_P1;SDS_P2;PMS_P1;PMS_P2;Temp;Humidity;BMP_temperature;BMP_pressure;BME280_temperature;BME280_humidity;BME280_pressure;Samples;Min_cycle;Max_cycle;Signal;HPM_P1;HPM_P2
2021/06/24 00:00:07;;;;;;;23.87;7.30;;;;;;;24.97;64.69;100387.31;125188;1102;104222;-78
2021/06/24 00:02:59;;;;;;;22.17;6.07;;;;;;;24.96;64.55;100393.59;125185;1099;104386;-78
2021/06/24 00:05:31;;;;;;;28.13;6.80;;;;;;;24.94;64.42;100401.69;125211;1099;104267;-78
2021/06/24 00:08:03;;;;;;;21.73;5.97;;;;;;;24.94;64.54;100406.18;125235;1099;104194;-77
2021/06/24 00:10:34;;;;;;;23.97;5.87;;;;;;;24.89;64.96;100405.42;125174;1100;104193;-78
2021/06/24 00:13:06;;;;;;;27.00;6.30;;;;;;;24.84;64.77;100407.31;125188;1099;104162;-78
2021/06/24 00:15:40;;;;;;;23.23;6.30;;;;;;;24.79;64.76;100412.80;125252;1099;104277;-78
2021/06/24 00:18:15;;;;;;;22.70;6.90;;;;;;;24.80;65.33;100405.66;125204;1099;104268;-78
2021/06/24 00:20:49;;;;;;;23.40;6.47;;;;;;;24.82;65.35;100406.48;125255;1099;104139;-78
2021/06/24 00:23:20;;;;;;;24.97;7.17;;;;;;;24.81;65.11;100402.94;125138;1099;104275;-77
2021/06/24 00:25:52;;;;;;;18.50;5.97;;;;;;;24.82;65.04;100403.80;125120;1102;104146;-78
2021/06/24 00:28:27;;;;;;;24.20;6.17;;;;;;;24.79;65.22;100395.83;125092;1102;104146;-78
2021/06/24 00:31:00;;;;;;;36.30;6.47;;;;;;;24.78;65.40;100399.42;125138;1099;104249;-78
2021/06/24 00:33:31;;;;;;;22.85;5.67;;;;;;;24.78;65.21;100404.78;125269;1099;104162;-78
2021/06/24 00:36:02;;;;;;;23.70;6.83;;;;;;;24.72;65.59;100408.52;125165;1099;104149;-78
2021/06/24 00:38:34;;;;;;;28.90;6.87;;;;;;;24.66;65.50;100406.86;125238;1102;104607;-76
2021/06/24 00:41:05;;;;;;;26.17;7.00;;;;;;;24.63;65.71;100408.74;125215;1099;104236;-78
2021/06/24 00:43:36;;;;;;;23.73;6.93;;;;;;;24.64;65.86;100418.56;125134;1099;104150;-77
2021/06/24 00:46:08;;;;;;;23.90;6.77;;;;;;;24.62;65.97;100415.92;125221;1099;104143;-78
2021/06/24 00:48:39;;;;;;;27.93;7.43;;;;;;;24.58;65.98;100406.16;125145;1100;104235;-78
2021/06/24 00:51:11;;;;;;;29.63;6.40;;;;;;;24.56;66.18;100408.85;125102;1099;104296;-79
2021/06/24 00:53:42;;;;;;;25.90;7.07;;;;;;;24.52;66.17;100412.52;125246;1102;104175;-78
2021/06/24 00:56:31;;;;;;;24.57;7.07;;;;;;;24.47;66.38;100417.11;125116;1099;104143;-77
2021/06/24 00:59:04;;;;;;;25.67;8.00;;;;;;;24.44;66.62;100413.63;125134;1099;104146;-77
2021/06/24 01:01:36;;;;;;;28.15;6.90;;;;;;;24.41;66.62;100415.44;125226;1102;104240;-78
2021/06/24 01:04:08;;;;;;;25.68;7.62;;;;;;;24.37;66.87;100412.86;125230;1099;104149;-78
2021/06/24 01:06:39;;;;;;;21.00;6.93;;;;;;;24.30;66.54;100409.45;125232;1099;104255;-79
2021/06/24 01:09:10;;;;;;;19.97;6.97;;;;;;;24.22;66.84;100404.25;125143;1099;104265;-78
2021/06/24 01:11:42;;;;;;;22.27;6.87;;;;;;;24.12;66.60;100407.17;125225;1099;104283;-78
2021/06/24 01:14:14;;;;;;;23.23;7.00;;;;;;;24.04;66.97;100410.02;125198;1099;104169;-78
2021/06/24 01:16:46;;;;;;;20.30;6.40;;;;;;;24.00;67.08;100406.53;125238;1099;104230;-77
2021/06/24 01:19:17;;;;;;;25.40;7.37;;;;;;;23.97;67.38;100403.91;125157;1099;104169;-78
2021/06/24 01:21:49;;;;;;;22.97;7.10;;;;;;;23.94;67.43;100403.98;125215;1099;104165;-78
2021/06/24 01:24:21;;;;;;;26.13;7.03;;;;;;;23.90;67.47;100402.27;125165;1099;104226;-77
2021/06/24 01:26:54;;;;;;;21.17;6.70;;;;;;;23.84;67.59;100391.67;125163;1099;104216;-78
2021/06/24 01:29:26;;;;;;;24.03;6.80;;;;;;;23.81;67.70;100397.06;125141;1099;104143;-78
2021/06/24 01:31:57;;;;;;;22.20;7.25;;;;;;;23.82;67.54;100401.52;125195;1102;104733;-78
2021/06/24 01:34:28;;;;;;;21.23;6.30;;;;;;;23.83;67.80;100403.30;125282;1102;104326;-78
2021/06/24 01:37:00;;;;;;;27.27;7.03;;;;;;;23.83;68.22;100400.61;125227;1099;104239;-78
2021/06/24 01:39:32;;;;;;;34.30;7.93;;;;;;;23.83;68.18;100400.61;125108;1098;104162;-78
2021/06/24 01:42:04;;;;;;;25.20;7.60;;;;;;;23.84;68.44;100399.71;125148;1099;104146;-79
2021/06/24 01:44:43;;;;;;;27.27;7.67;;;;;;;23.82;68.34;100391.67;125212;1099;104190;-78
2021/06/24 01:47:12;;;;;;;;;;;;;;;23.84;68.46;100399.71;125164;1099;104169;-78
2021/06/24 01:49:44;;;;;;;28.23;7.00;;;;;;;23.82;68.51;100398.84;125209;1099;104170;-78
2021/06/24 01:52:15;;;;;;;22.17;7.30;;;;;;;23.80;68.72;100393.52;125213;1099;104367;-78
2021/06/24 01:54:49;;;;;;;27.73;7.47;;;;;;;23.81;68.47;100383.66;125157;1099;104268;-78
2021/06/24 01:57:20;;;;;;;21.47;6.80;;;;;;;23.86;68.75;100384.51;125156;1099;104270;-79
2021/06/24 01:59:52;;;;;;;25.23;7.03;;;;;;;23.90;68.83;100394.22;125178;1099;104195;-79
2021/06/24 02:02:25;;;;;;;24.77;6.50;;;;;;;23.84;68.77;100389.00;125177;1099;104242;-78
2021/06/24 02:04:56;;;;;;;17.87;5.93;;;;;;;23.78;68.69;100395.34;125212;1099;104134;-78
2021/06/24 02:07:42;;;;;;;20.73;6.50;;;;;;;23.74;68.96;100401.67;125144;1099;104143;-78
2021/06/24 02:10:26;;;;;;;22.23;6.20;;;;;;;23.74;69.01;100403.48;125141;1099;104238;-78
2021/06/24 02:13:01;;;;;;;22.87;6.53;;;;;;;23.73;68.95;100401.70;125231;1099;104133;-78
2021/06/24 02:15:32;;;;;;;25.73;6.33;;;;;;;23.75;69.09;100411.48;125209;1099;104216;-79
2021/06/24 02:18:04;;;;;;;23.77;6.10;;;;;;;23.77;69.30;100404.29;125227;1099;105304;-77
2021/06/24 02:20:43;;;;;;;21.37;5.67;;;;;;;23.76;68.72;100412.36;125091;1099;104254;-78
2021/06/24 02:23:26;;;;;;;24.50;6.33;;;;;;;23.78;69.01;100413.20;125197;1099;104137;-78
2021/06/24 02:26:07;;;;;;;26.17;5.97;;;;;;;23.77;69.46;100412.33;125190;1102;104188;-78
2021/06/24 02:28:45;;;;;;;21.37;6.37;;;;;;;23.78;69.24;100419.46;125256;1099;104216;-77
2021/06/24 02:31:27;;;;;;;25.27;6.50;;;;;;;23.73;69.25;100420.45;125178;1097;104235;-77
2021/06/24 02:34:01;;;;;;;25.93;6.70;;;;;;;23.67;69.29;100419.67;125181;1099;104338;-77
2021/06/24 02:36:38;;;;;;;21.30;6.03;;;;;;;23.67;69.44;100418.80;125143;1102;104218;-78
2021/06/24 02:39:09;;;;;;;27.57;6.83;;;;;;;23.65;69.60;100421.51;125182;1099;104172;-77
2021/06/24 02:41:41;;;;;;;22.23;6.37;;;;;;;23.63;69.64;100419.76;125170;1102;104245;-77
2021/06/24 02:44:11;;;;;;;24.80;6.43;;;;;;;23.57;69.72;100428.78;125199;1099;104145;-78
2021/06/24 02:46:42;;;;;;;24.07;6.57;;;;;;;23.53;69.80;100428.88;125213;1099;104235;-79
2021/06/24 02:49:14;;;;;;;33.60;6.83;;;;;;;23.50;69.90;100432.52;125145;1099;104252;-78
2021/06/24 02:51:54;;;;;;;22.90;6.50;;;;;;;23.50;69.99;100427.16;125145;1099;104153;-78
2021/06/24 02:54:28;;;;;;;20.60;6.80;;;;;;;23.48;69.93;100434.31;125171;1098;104683;-78
2021/06/24 02:57:03;;;;;;;19.40;6.20;;;;;;;23.45;70.14;100439.72;125188;1099;104157;-78
2021/06/24 02:59:50;;;;;;;20.43;6.20;;;;;;;23.42;70.08;100445.13;125149;1099;104303;-78
2021/06/24 03:02:23;;;;;;;26.30;6.63;;;;;;;23.42;70.22;100447.81;125189;1102;104156;-78
2021/06/24 03:04:54;;;;;;;23.43;6.33;;;;;;;23.40;70.21;100450.52;125189;1099;104242;-76
2021/06/24 03:07:30;;;;;;;25.00;5.97;;;;;;;23.40;70.40;100447.84;125244;1099;104284;-78
2021/06/24 03:10:20;;;;;;;24.53;7.23;;;;;;;23.38;70.29;100452.35;125110;1099;104144;-78
2021/06/24 03:12:54;;;;;;;22.70;6.40;;;;;;;23.39;70.43;100447.87;125170;1099;104705;-77
2021/06/24 03:15:25;;;;;;;23.97;6.37;;;;;;;23.41;70.74;100454.10;125168;1099;104953;-78
2021/06/24 03:17:56;;;;;;;21.53;5.87;;;;;;;23.45;70.81;100453.11;125156;1099;104213;-78
2021/06/24 03:20:28;;;;;;;22.80;5.73;;;;;;;23.49;70.93;100460.19;125184;1099;104131;-78
2021/06/24 03:23:00;;;;;;;23.90;6.73;;;;;;;23.54;70.64;100465.46;125228;1099;104195;-78
2021/06/24 03:25:31;;;;;;;23.17;6.33;;;;;;;23.58;70.66;100469.86;125195;1099;104293;-78
2021/06/24 03:28:03;;;;;;;26.10;6.97;;;;;;;23.61;70.76;100468.00;125235;1098;104233;-78
2021/06/24 03:30:51;;;;;;;22.10;6.50;;;;;;;23.65;70.70;100461.69;125176;1099;104146;-78
2021/06/24 03:33:25;;;;;;;24.00;5.73;;;;;;;23.67;70.89;100462.53;125195;1099;104146;-78
2021/06/24 03:35:56;;;;;;;25.20;6.73;;;;;;;23.70;71.05;100456.24;125261;1102;104322;-78
2021/06/24 03:38:28;;;;;;;24.10;6.07;;;;;;;23.75;71.01;100456.12;125172;1102;104319;-77
2021/06/24 03:40:59;;;;;;;25.57;6.77;;;;;;;23.79;70.72;100461.39;125223;1102;104150;-78
2021/06/24 03:43:30;;;;;;;23.43;5.70;;;;;;;23.81;71.12;100462.27;125260;1102;104440;-78
2021/06/24 03:46:02;;;;;;;25.35;6.30;;;;;;;23.88;70.96;100459.50;125323;1102;104175;-78
2021/06/24 03:48:38;;;;;;;23.63;6.30;;;;;;;23.90;71.11;100461.21;125299;1102;104284;-78
2021/06/24 03:51:16;;;;;;;21.23;5.43;;;;;;;23.90;70.96;100458.53;125126;1102;104409;-77
2021/06/24 03:53:47;;;;;;;21.37;5.83;;;;;;;23.87;70.94;100463.95;125203;1102;104296;-78
2021/06/24 03:56:19;;;;;;;26.77;6.43;;;;;;;23.85;71.03;100460.44;125291;1102;104220;-78
2021/06/24 03:58:53;;;;;;;20.57;6.10;;;;;;;23.85;71.05;100461.30;125263;1102;104299;-79
2021/06/24 04:01:24;;;;;;;20.80;5.93;;;;;;;23.85;71.02;100463.11;125240;1102;104197;-78
2021/06/24 04:03:56;;;;;;;27.17;5.83;;;;;;;23.87;71.30;100466.63;125204;1102;104210;-79
2021/06/24 04:06:33;;;;;;;26.50;6.23;;;;;;;23.88;71.54;100456.82;125295;1102;104184;-78
2021/06/24 04:09:08;;;;;;;25.92;7.12;;;;;;;23.92;71.50;100463.86;125161;1099;104242;-79
2021/06/24 04:11:39;;;;;;;22.95;5.62;;;;;;;23.98;71.80;100475.37;125192;1099;104140;-79
2021/06/24 04:14:18;;;;;;;29.10;7.40;;;;;;;24.05;71.33;100473.44;125213;1098;104204;-78
2021/06/24 04:16:57;;;;;;;24.80;6.70;;;;;;;24.10;71.21;100466.17;125124;1099;104246;-78
2021/06/24 04:19:29;;;;;;;23.97;6.70;;;;;;;24.14;71.62;100459.84;125295;1102;104579;-80
2021/06/24 04:22:00;;;;;;;30.50;6.80;;;;;;;24.18;71.59;100458.88;125219;1102;104191;-79
2021/06/24 04:24:43;;;;;;;29.83;6.27;;;;;;;24.23;71.41;100458.75;125306;1102;104258;-80
2021/06/24 04:27:14;;;;;;;26.60;7.47;;;;;;;24.24;71.45;100447.12;125283;1103;104731;-79
2021/06/24 04:29:46;;;;;;;34.33;6.83;;;;;;;24.30;71.93;100446.11;125224;1102;104294;-78
2021/06/24 04:32:18;;;;;;;25.00;6.50;;;;;;;24.36;71.80;100443.30;125263;1102;104152;-78
2021/06/24 04:34:49;;;;;;;23.47;6.80;;;;;;;24.41;71.57;100442.25;125227;1102;104275;-78
2021/06/24 04:37:27;;;;;;;22.67;6.67;;;;;;;24.49;72.01;100443.89;125321;1102;104248;-78
2021/06/24 04:39:59;;;;;;;21.87;6.43;;;;;;;24.55;71.85;100451.80;125264;1102;104172;-78
2021/06/24 04:42:36;;;;;;;21.07;7.00;;;;;;;24.64;72.18;100465.04;125256;1102;104166;-77
2021/06/24 04:45:14;;;;;;;23.30;6.63;;;;;;;24.71;71.84;100466.67;125260;1102;104194;-78
2021/06/24 04:47:59;;;;;;;23.57;7.37;;;;;;;24.77;71.80;100460.27;125252;1102;104143;-77
2021/06/24 04:50:33;;;;;;;23.53;6.97;;;;;;;24.83;72.11;100476.22;125272;1102;104319;-76
2021/06/24 04:53:05;;;;;;;25.47;7.00;;;;;;;24.91;72.08;100465.30;125172;1102;104338;-76
2021/06/24 04:55:49;;;;;;;20.63;7.53;;;;;;;24.97;71.91;100466.97;125244;1099;104146;-77
2021/06/24 04:58:25;;;;;;;23.33;7.83;;;;;;;25.04;72.05;100469.47;125231;1099;104142;-77
2021/06/24 05:01:19;;;;;;;21.97;8.13;;;;;;;25.10;71.90;100461.26;125148;1099;104174;-77
2021/06/24 05:04:03;;;;;;;21.13;7.27;;;;;;;25.14;71.71;100464.73;125163;1099;104300;-77
2021/06/24 05:06:34;;;;;;;21.53;7.40;;;;;;;25.19;72.17;100464.63;125196;1099;104335;-76
2021/06/24 05:09:06;;;;;;;22.20;7.90;;;;;;;25.26;71.83;100461.74;125206;1099;104312;-76
2021/06/24 05:11:37;;;;;;;;;;;;;;;25.35;72.44;100474.06;125213;1099;104222;-77
2021/06/24 05:14:09;;;;;;;24.43;7.20;;;;;;;25.40;71.92;100468.58;125220;1099;104142;-77
2021/06/24 05:16:43;;;;;;;29.33;8.33;;;;;;;25.45;72.29;100472.05;125197;1099;104140;-76
2021/06/24 05:19:22;;;;;;;27.77;7.77;;;;;;;25.55;71.95;100469.98;125207;1102;104157;-77
2021/06/24 05:21:58;;;;;;;27.70;9.33;;;;;;;25.61;72.30;100473.38;125137;1102;104143;-78
2021/06/24 05:24:34;;;;;;;27.20;8.57;;;;;;;25.67;71.77;100477.72;125097;1099;104195;-77
2021/06/24 05:27:09;;;;;;;25.13;8.17;;;;;;;25.73;72.06;100473.99;125163;1099;104207;-77
2021/06/24 05:29:45;;;;;;;25.70;8.10;;;;;;;25.75;72.01;100470.31;125144;1100;104242;-79
2021/06/24 05:32:20;;;;;;;27.93;7.87;;;;;;;25.82;71.63;100471.02;125206;1102;104757;-77
2021/06/24 05:34:56;;;;;;;23.80;8.60;;;;;;;25.87;71.66;100466.42;125095;1102;105592;-78
2021/06/24 05:37:35;;;;;;;25.50;8.07;;;;;;;25.91;71.62;100476.14;125361;1102;104131;-80
2021/06/24 05:40:12;;;;;;;22.27;8.33;;;;;;;25.98;72.23;100474.22;125125;1099;102158;-79
2021/06/24 05:46:25;;;;;;;23.13;8.37;;;;;;;26.17;72.16;100486.18;124975;1102;117819;-77
2021/06/24 05:49:25;;;;;;;29.50;9.00;;;;;;;26.23;72.13;100478.88;125120;1099;104136;-78
2021/06/24 05:51:58;;;;;;;24.97;8.87;;;;;;;26.32;71.66;100486.68;125205;1099;101786;-79
2021/06/24 05:54:30;;;;;;;23.17;8.03;;;;;;;26.40;71.93;100478.34;125127;1099;104357;-77
2021/06/24 05:57:04;;;;;;;23.77;8.27;;;;;;;26.45;71.76;100474.60;125215;1099;104325;-76
2021/06/24 05:59:39;;;;;;;29.43;8.70;;;;;;;26.52;71.39;100476.19;125174;1102;104249;-76
2021/06/24 06:02:14;;;;;;;21.83;8.60;;;;;;;26.58;72.03;100476.92;125252;1102;104194;-77
2021/06/24 06:04:49;;;;;;;23.87;8.10;;;;;;;26.62;71.68;100470.52;125145;1099;104168;-76
2021/06/24 06:07:23;;;;;;;31.07;9.03;;;;;;;26.66;71.94;100472.20;125092;1099;104175;-76
2021/06/24 06:10:04;;;;;;;24.00;8.57;;;;;;;26.72;71.78;100483.67;125237;1099;104252;-76
2021/06/24 06:12:35;;;;;;;23.63;9.90;;;;;;;26.80;71.61;100478.05;125108;1099;104155;-76
2021/06/24 06:15:08;;;;;;;26.87;9.73;;;;;;;26.88;71.23;100489.45;125089;1100;104396;-76
2021/06/24 06:17:41;;;;;;;23.33;9.60;;;;;;;26.93;71.67;100483.01;125149;1099;104699;-78
2021/06/24 06:20:18;;;;;;;24.10;8.50;;;;;;;26.98;71.46;100481.07;125203;1102;104217;-77
2021/06/24 06:22:52;;;;;;;22.67;8.93;;;;;;;27.04;71.56;100484.44;125224;1102;104146;-76
2021/06/24 06:25:28;;;;;;;23.67;9.83;;;;;;;27.12;71.37;100483.31;125105;1102;104220;-77
2021/06/24 06:28:02;;;;;;;19.87;9.17;;;;;;;27.20;71.16;100468.63;125078;1102;104107;-76
2021/06/24 06:30:35;;;;;;;24.67;8.27;;;;;;;27.28;71.57;100480.97;125175;1102;104329;-78
2021/06/24 06:33:08;;;;;;;27.83;8.93;;;;;;;27.37;71.15;100480.70;125121;1102;104329;-78
2021/06/24 06:35:46;;;;;;;28.97;8.33;;;;;;;27.43;70.97;100475.97;125172;1102;104256;-77
2021/06/24 06:38:20;;;;;;;20.20;8.60;;;;;;;27.52;71.44;100473.88;125128;1102;104403;-76
2021/06/24 06:40:54;;;;;;;22.90;8.15;;;;;;;27.59;71.19;100480.82;124810;1102;104229;-76
2021/06/24 06:43:28;;;;;;;20.63;8.33;;;;;;;27.68;71.13;100479.62;125187;1102;104172;-76
2021/06/24 06:45:58;;;;;;;;;;;;;;;27.76;70.59;100477.53;125219;1102;104252;-76
2021/06/24 06:48:29;;;;;;;24.63;8.80;;;;;;;27.84;70.84;100472.73;125159;1102;104242;-76
2021/06/24 06:51:00;;;;;;;25.43;9.43;;;;;;;27.94;70.95;100476.86;125070;1101;104364;-76
2021/06/24 06:53:35;;;;;;;30.80;9.83;;;;;;;28.02;70.45;100473.02;125071;1102;104287;-78
2021/06/24 06:56:10;;;;;;;24.17;8.80;;;;;;;28.11;70.55;100484.36;125047;1101;104149;-77
2021/06/24 06:58:44;;;;;;;21.77;8.50;;;;;;;28.23;70.25;100482.13;125056;1099;104140;-77
2021/06/24 07:01:17;;;;;;;22.57;8.50;;;;;;;28.32;70.30;100485.34;125099;1102;104362;-78
2021/06/24 07:03:49;;;;;;;19.90;8.90;;;;;;;28.45;70.37;100487.57;125003;1102;104210;-76
2021/06/24 07:06:21;;;;;;;25.37;8.73;;;;;;;28.61;70.18;100483.38;125060;1099;104213;-77
2021/06/24 07:08:59;;;;;;;22.90;8.43;;;;;;;28.73;69.81;100476.59;125261;1102;104255;-77
2021/06/24 07:11:32;;;;;;;25.00;8.90;;;;;;;28.84;70.12;100479.77;125116;1099;104239;-75
2021/06/24 07:14:04;;;;;;;22.75;8.85;;;;;;;28.92;69.57;100481.25;125126;1102;104249;-76
2021/06/24 07:16:37;;;;;;;23.43;8.73;;;;;;;28.98;69.76;100478.30;125069;1101;104197;-77
2021/06/24 07:19:09;;;;;;;23.80;9.35;;;;;;;29.14;69.55;100476.73;125068;1099;104261;-76
2021/06/24 07:21:42;;;;;;;25.13;8.60;;;;;;;29.33;69.36;100478.69;125042;1102;104303;-77
2021/06/24 07:24:15;;;;;;;24.50;8.13;;;;;;;29.44;69.08;100479.09;125104;1102;104313;-76
2021/06/24 07:26:47;;;;;;;19.90;8.35;;;;;;;29.52;68.72;100476.06;125060;1102;104233;-76
2021/06/24 07:29:19;;;;;;;22.00;8.77;;;;;;;29.64;68.76;100478.23;125118;1102;104228;-77
2021/06/24 07:31:53;;;;;;;23.50;8.47;;;;;;;29.73;68.58;100471.52;125099;1102;104408;-77
2021/06/24 07:34:26;;;;;;;24.57;8.63;;;;;;;29.90;68.55;100470.79;125128;1102;104361;-77
2021/06/24 07:37:01;;;;;;;19.47;7.67;;;;;;;30.09;67.89;100477.13;124983;1102;104163;-77
2021/06/24 07:39:33;;;;;;;25.03;8.60;;;;;;;30.26;67.94;100478.16;124977;1102;104198;-77
2021/06/24 07:42:08;;;;;;;24.65;7.83;;;;;;;30.42;67.54;100479.24;125101;1102;104326;-78
2021/06/24 07:44:39;;;;;;;;;;;;;;;30.59;66.71;100488.37;124977;1102;104242;-78
2021/06/24 07:50:33;;;;;;;21.23;7.40;;;;;;;30.94;66.88;100492.07;124696;1105;104365;-78
2021/06/24 07:53:09;;;;;;;23.17;8.70;;;;;;;31.17;66.84;100506.35;125020;1102;104460;-77
2021/06/24 07:55:40;;;;;;;22.90;8.10;;;;;;;31.29;66.17;100491.28;125328;1102;104165;-76
2021/06/24 07:58:14;;;;;;;23.70;7.67;;;;;;;31.40;65.99;100493.45;125150;1102;103024;-76
2021/06/24 08:00:48;;;;;;;22.53;7.87;;;;;;;31.56;65.84;100491.74;125110;1102;104150;-78
2021/06/24 08:03:22;;;;;;;19.42;7.00;;;;;;;31.75;65.08;100488.94;125213;1102;104219;-78
2021/06/24 08:05:58;;;;;;;20.20;7.03;;;;;;;31.94;64.61;100488.82;125296;1102;104293;-77
2021/06/24 08:08:31;;;;;;;21.02;6.85;;;;;;;32.03;63.87;100484.74;125269;1100;104143;-78
2021/06/24 08:11:09;;;;;;;18.83;6.17;;;;;;;32.07;63.23;100497.20;125192;1102;104485;-80
2021/06/24 08:13:50;;;;;;;19.83;6.67;;;;;;;32.08;63.36;100488.08;125257;1099;104223;-78
2021/06/24 08:16:23;;;;;;;22.03;7.23;;;;;;;32.18;63.22;100489.38;125061;1100;104129;-78
2021/06/24 08:18:56;;;;;;;18.70;6.60;;;;;;;32.29;61.65;100487.87;125122;1099;104264;-79
2021/06/24 08:21:34;;;;;;;21.33;6.65;;;;;;;32.23;61.94;100484.55;125089;1098;104165;-79
2021/06/24 08:24:09;;;;;;;23.87;6.90;;;;;;;32.35;61.49;100485.73;125105;1099;104229;-80
2021/06/24 08:26:45;;;;;;;19.53;6.87;;;;;;;32.32;61.42;100479.56;125267;1100;104125;-79
2021/06/24 08:29:24;;;;;;;25.30;7.33;;;;;;;32.23;60.75;100479.12;125050;1099;104315;-79
2021/06/24 08:32:00;;;;;;;22.10;6.73;;;;;;;32.26;60.31;100478.09;125084;1099;104136;-80
2021/06/24 08:34:39;;;;;;;22.63;6.77;;;;;;;32.35;59.89;100479.40;125093;1102;104188;-79
2021/06/24 08:37:14;;;;;;;19.47;5.83;;;;;;;32.66;59.37;100478.57;125028;1102;104216;-78
2021/06/24 08:39:48;;;;;;;20.80;6.00;;;;;;;32.88;59.29;100480.95;125173;1099;104169;-80
2021/06/24 08:42:22;;;;;;;21.70;7.13;;;;;;;33.01;59.40;100477.52;125038;1099;104208;-77
2021/06/24 08:44:58;;;;;;;20.00;5.87;;;;;;;33.11;59.07;100479.61;125084;1099;104211;-81
2021/06/24 08:47:32;;;;;;;17.07;5.80;;;;;;;33.25;58.45;100478.80;125227;1099;104213;-79
2021/06/24 08:50:16;;;;;;;18.17;5.87;;;;;;;33.31;57.83;100478.43;125403;1102;108142;-77
2021/06/24 08:52:54;;;;;;;15.70;4.43;;;;;;;33.34;57.05;100476.52;125210;1099;104165;-74
2021/06/24 08:55:46;;;;;;;19.87;4.80;;;;;;;33.40;57.23;100477.02;125165;1098;104395;-76
2021/06/24 08:58:36;;;;;;;20.33;6.17;;;;;;;33.34;56.05;100477.38;125184;1099;104332;-77
2021/06/24 09:01:10;;;;;;;16.33;5.67;;;;;;;33.43;56.37;100474.11;125216;1098;104178;-80
2021/06/24 09:03:55;;;;;;;23.80;5.40;;;;;;;33.22;55.57;100478.98;125120;1102;104299;-77
2021/06/24 09:06:38;;;;;;;20.93;5.63;;;;;;;33.20;55.58;100480.92;125119;1099;104179;-77
2021/06/24 09:09:24;;;;;;;20.57;5.37;;;;;;;33.24;54.97;100482.50;125067;1099;104201;-77
2021/06/24 09:12:08;;;;;;;16.80;4.60;;;;;;;33.25;54.55;100477.93;125106;1099;104142;-76
2021/06/24 09:14:44;;;;;;;15.53;4.50;;;;;;;33.28;54.27;100465.02;125063;1102;104204;-76
2021/06/24 09:17:37;;;;;;;21.93;4.83;;;;;;;33.32;54.16;100458.44;125017;1101;104210;-78
2021/06/24 09:20:38;;;;;;;16.35;5.53;;;;;;;33.34;53.78;100468.36;125125;1099;102404;-77
2021/06/24 09:23:16;;;;;;;17.07;5.17;;;;;;;33.40;53.82;100465.27;125105;1102;104169;-78
2021/06/24 09:26:13;;;;;;;21.33;6.03;;;;;;;33.51;53.50;100465.48;125123;1102;104146;-78
2021/06/24 09:28:50;;;;;;;16.87;5.40;;;;;;;33.60;53.18;100462.20;125225;1102;104168;-78
2021/06/24 09:31:29;;;;;;;23.83;5.17;;;;;;;33.65;52.91;100470.95;125981;1099;104204;-79
2021/06/24 09:34:10;;;;;;;18.27;4.80;;;;;;;33.79;51.64;100470.13;126090;1099;104236;-79
2021/06/24 09:36:44;;;;;;;16.67;4.93;;;;;;;33.72;51.99;100455.14;125201;1099;104708;-77
2021/06/24 09:39:33;;;;;;;18.43;4.97;;;;;;;33.66;51.49;100458.25;125299;1099;104167;-78
2021/06/24 09:42:10;;;;;;;25.00;5.30;;;;;;;33.60;51.73;100459.48;126108;1099;104259;-77
2021/06/24 09:44:45;;;;;;;20.93;5.30;;;;;;;33.61;51.49;100457.63;125583;1099;104181;-78
2021/06/24 09:47:27;;;;;;;16.90;5.13;;;;;;;33.59;50.78;100465.88;126222;1099;104188;-77
2021/06/24 09:50:03;;;;;;;18.47;4.93;;;;;;;33.42;50.51;100452.45;125257;1099;104290;-79
2021/06/24 09:52:39;;;;;;;22.73;6.07;;;;;;;33.43;50.73;100459.65;125274;1099;104190;-79
2021/06/24 09:55:16;;;;;;;19.27;4.87;;;;;;;33.40;50.55;100448.95;125689;1098;104248;-78
2021/06/24 09:58:14;;;;;;;17.63;5.40;;;;;;;33.23;50.11;100453.55;126069;1097;104402;-79
2021/06/24 10:00:57;;;;;;;18.47;5.23;;;;;;;33.12;49.53;100461.45;126229;1099;104224;-78
2021/06/24 10:03:36;;;;;;;19.47;5.30;;;;;;;33.09;49.96;100457.06;126137;1099;104140;-79
2021/06/24 10:06:09;;;;;;;20.30;5.47;;;;;;;33.20;50.04;100448.30;126182;1099;104223;-78
2021/06/24 10:08:47;;;;;;;21.57;5.53;;;;;;;33.24;49.35;100448.98;126619;1099;104294;-78
2021/06/24 10:15:30;;;;;;;17.13;5.70;;;;;;;33.49;49.12;100454.70;125847;1099;102186;-78
2021/06/24 10:18:20;;;;;;;17.62;5.53;;;;;;;33.60;48.70;100455.90;125506;1099;104229;-78
2021/06/24 10:24:38;;;;;;;22.80;5.30;;;;;;;33.70;47.74;100451.63;126272;1099;104306;-78
2021/06/24 10:27:32;;;;;;;21.33;5.77;;;;;;;33.71;47.73;100447.97;126061;1099;104586;-77
2021/06/24 10:30:14;;;;;;;25.05;5.30;;;;;;;33.70;47.04;100446.18;125955;1098;104222;-76
2021/06/24 10:32:58;;;;;;;21.20;4.97;;;;;;;33.79;47.25;100445.64;125211;1099;104331;-76
2021/06/24 10:35:32;;;;;;;18.93;5.30;;;;;;;33.90;47.04;100453.13;125128;1099;104300;-77
2021/06/24 10:38:05;;;;;;;20.60;5.17;;;;;;;33.96;46.83;100450.03;125192;1099;104383;-77
2021/06/24 10:40:41;;;;;;;17.00;5.40;;;;;;;34.04;46.76;100450.41;125475;1099;104204;-78
2021/06/24 10:43:22;;;;;;;19.97;5.33;;;;;;;34.09;46.63;100444.67;125378;1099;104290;-78
2021/06/24 10:56:01;;;;;;;22.40;5.63;;;;;;;33.85;45.44;100439.81;126164;1098;104284;-77
2021/06/24 10:58:48;;;;;;;20.13;5.40;;;;;;;33.88;45.51;100437.86;126197;1099;104267;-77
2021/06/24 11:01:49;;;;;;;22.03;5.00;;;;;;;33.94;45.37;100443.81;126357;1099;104134;-77
2021/06/24 11:04:38;;;;;;;19.43;5.63;;;;;;;33.95;45.21;100445.55;126348;1098;104175;-78
2021/06/24 11:07:38;;;;;;;17.40;4.77;;;;;;;34.02;45.47;100438.75;126103;1099;104249;-78
2021/06/24 11:10:30;;;;;;;22.83;5.60;;;;;;;34.06;44.76;100436.70;125984;1099;104187;-77
2021/06/24 11:13:12;;;;;;;22.02;5.62;;;;;;;34.01;44.43;100447.88;125868;1099;104305;-77
2021/06/24 11:15:56;;;;;;;22.37;5.63;;;;;;;34.02;44.52;100441.47;125968;1099;104162;-81
2021/06/24 11:18:49;;;;;;;19.83;4.87;;;;;;;34.07;44.38;100443.91;126263;1099;104156;-78
2021/06/24 11:21:39;;;;;;;24.07;5.93;;;;;;;34.07;43.84;100441.18;125911;1099;104325;-79
2021/06/24 11:24:22;;;;;;;24.33;5.30;;;;;;;34.11;44.37;100444.57;126175;1099;104181;-79
2021/06/24 11:27:02;;;;;;;21.73;6.03;;;;;;;34.15;43.75;100435.25;126096;1099;103977;-79
2021/06/24 11:29:46;;;;;;;22.50;5.33;;;;;;;34.19;43.96;100439.53;125946;1099;104236;-78
2021/06/24 11:32:21;;;;;;;21.93;5.47;;;;;;;34.16;43.33;100432.42;126085;1099;104281;-78
2021/06/24 11:35:02;;;;;;;26.03;6.10;;;;;;;34.19;43.46;100442.25;126185;1099;104134;-78
2021/06/24 11:37:37;;;;;;;16.43;4.80;;;;;;;34.21;42.71;100445.74;126120;1099;104283;-77
2021/06/24 11:40:11;;;;;;;20.70;6.20;;;;;;;34.05;43.15;100440.41;126027;1099;104146;-79
2021/06/24 11:42:48;;;;;;;24.77;6.07;;;;;;;33.83;43.11;100441.77;125303;1099;104137;-79
2021/06/24 11:45:22;;;;;;;23.05;5.70;;;;;;;33.74;43.31;100430.56;126256;1099;104165;-77
2021/06/24 11:47:57;;;;;;;22.43;5.77;;;;;;;33.83;43.38;100425.44;126364;1099;104165;-77
2021/06/24 12:04:19;;;;;;;21.03;5.43;;;;;;;33.93;42.91;100428.45;125939;1099;104312;-76
2021/06/24 12:06:54;;;;;;;19.23;6.30;;;;;;;33.96;42.93;100425.53;126019;1099;104216;-77
2021/06/24 12:09:30;;;;;;;20.93;5.63;;;;;;;33.97;43.00;100420.95;126172;1099;104262;-78
2021/06/24 12:12:04;;;;;;;24.17;6.20;;;;;;;33.92;42.86;100423.97;126098;1099;104136;-77
2021/06/24 12:14:54;;;;;;;23.57;5.80;;;;;;;33.92;43.05;100429.41;126278;1099;118607;-77
2021/06/24 12:17:28;;;;;;;20.27;5.53;;;;;;;33.87;42.78;100417.95;126199;1099;104287;-76
2021/06/24 12:20:04;;;;;;;22.00;5.80;;;;;;;33.81;42.77;100421.92;126197;1099;104188;-76